sensor_id;sensor_type;location;lat;lon;timestamp;pressure;altitude;pressure_sealevel;temperature
58307;BMP280;44116;50.884;4.768;2023-06-22T00:01:00;101400.0;;;19.8
58307;BMP280;44116;50.884;4.768;2023-06-22T00:03:00;101390.0;;;20.0
58307;BMP280;44116;50.884;4.768;2023-06-22T00:05:00;101390.0;;;20.0
58307;BMP280;44116;50.884;4.768;2023-06-22T00:07:00;101390.0;;;20.0
58307;BMP280;44116;50.884;4.768;2023-06-22T00:09:00;101390.0;;;20.0
58307;BMP280;44116;50.884;4.768;2023-06-22T00:11:00;101390.0;;;19.9
58307;BMP280;44116;50.884;4.768;2023-06-22T00:13:00;101390.0;;;20.0
58307;BMP280;44116;50.884;4.768;2023-06-22T00:15:00;101380.0;;;19.8
58307;BMP280;44116;50.884;4.768;2023-06-22T00:17:00;101380.0;;;20.0
58307;BMP280;44116;50.884;4.768;2023-06-22T00:19:00;101380.0;;;19.9
58307;BMP280;44116;50.884;4.768;2023-06-22T00:23:00;101370.0;;;19.6
58307;BMP280;44116;50.884;4.768;2023-06-22T00:25:00;101370.0;;;19.7
58307;BMP280;44116;50.884;4.768;2023-06-22T00:27:00;101370.0;;;19.7
58307;BMP280;44116;50.884;4.768;2023-06-22T00:29:00;101370.0;;;19.6
58307;BMP280;44116;50.884;4.768;2023-06-22T00:31:00;101370.0;;;19.4
58307;BMP280;44116;50.884;4.768;2023-06-22T00:33:00;101370.0;;;19.3
58307;BMP280;44116;50.884;4.768;2023-06-22T00:35:00;101370.0;;;19.2
58307;BMP280;44116;50.884;4.768;2023-06-22T00:37:00;101370.0;;;19.3
58307;BMP280;44116;50.884;4.768;2023-06-22T00:38:59;101370.0;;;19.4
58307;BMP280;44116;50.884;4.768;2023-06-22T00:40:59;101360.0;;;19.2
58307;BMP280;44116;50.884;4.768;2023-06-22T00:42:59;101360.0;;;19.2
58307;BMP280;44116;50.884;4.768;2023-06-22T00:44:59;101350.0;;;19.2
58307;BMP280;44116;50.884;4.768;2023-06-22T00:46:59;101350.0;;;19.2
58307;BMP280;44116;50.884;4.768;2023-06-22T00:51:00;101360.0;;;18.9
58307;BMP280;44116;50.884;4.768;2023-06-22T00:54:59;101350.0;;;19.7
58307;BMP280;44116;50.884;4.768;2023-06-22T00:56:59;101360.0;;;18.9
58307;BMP280;44116;50.884;4.768;2023-06-22T01:00:59;101360.0;;;18.7
58307;BMP280;44116;50.884;4.768;2023-06-22T01:02:59;101360.0;;;18.6
58307;BMP280;44116;50.884;4.768;2023-06-22T01:04:59;101360.0;;;18.7
58307;BMP280;44116;50.884;4.768;2023-06-22T01:07:00;101360.0;;;18.7
58307;BMP280;44116;50.884;4.768;2023-06-22T01:09:00;101370.0;;;18.6
58307;BMP280;44116;50.884;4.768;2023-06-22T01:11:01;101360.0;;;19.4
58307;BMP280;44116;50.884;4.768;2023-06-22T01:13:01;101360.0;;;19.0
58307;BMP280;44116;50.884;4.768;2023-06-22T01:15:02;101370.0;;;18.9
58307;BMP280;44116;50.884;4.768;2023-06-22T01:16:59;101360.0;;;18.9
58307;BMP280;44116;50.884;4.768;2023-06-22T01:19:00;101360.0;;;18.8
58307;BMP280;44116;50.884;4.768;2023-06-22T01:20:59;101360.0;;;18.6
58307;BMP280;44116;50.884;4.768;2023-06-22T01:23:03;101360.0;;;18.6
58307;BMP280;44116;50.884;4.768;2023-06-22T01:27:00;101350.0;;;18.7
58307;BMP280;44116;50.884;4.768;2023-06-22T01:30:59;101350.0;;;18.5
58307;BMP280;44116;50.884;4.768;2023-06-22T01:32:59;101340.0;;;18.6
58307;BMP280;44116;50.884;4.768;2023-06-22T01:35:00;101330.0;;;18.6
58307;BMP280;44116;50.884;4.768;2023-06-22T01:36:59;101330.0;;;18.6
58307;BMP280;44116;50.884;4.768;2023-06-22T01:38:59;101330.0;;;18.5
58307;BMP280;44116;50.884;4.768;2023-06-22T01:40:59;101330.0;;;18.6
58307;BMP280;44116;50.884;4.768;2023-06-22T01:42:59;101320.0;;;18.3
58307;BMP280;44116;50.884;4.768;2023-06-22T01:44:59;101320.0;;;18.4
58307;BMP280;44116;50.884;4.768;2023-06-22T01:48:59;101310.0;;;18.2
58307;BMP280;44116;50.884;4.768;2023-06-22T01:50:59;101310.0;;;18.3
58307;BMP280;44116;50.884;4.768;2023-06-22T01:52:58;101310.0;;;18.3
58307;BMP280;44116;50.884;4.768;2023-06-22T01:54:59;101300.0;;;18.2
58307;BMP280;44116;50.884;4.768;2023-06-22T01:56:59;101300.0;;;18.2
58307;BMP280;44116;50.884;4.768;2023-06-22T01:59:00;101300.0;;;18.2
58307;BMP280;44116;50.884;4.768;2023-06-22T02:01:00;101300.0;;;18.4
58307;BMP280;44116;50.884;4.768;2023-06-22T02:02:59;101300.0;;;18.3
58307;BMP280;44116;50.884;4.768;2023-06-22T02:04:59;101310.0;;;18.0
58307;BMP280;44116;50.884;4.768;2023-06-22T02:06:58;101310.0;;;18.1
58307;BMP280;44116;50.884;4.768;2023-06-22T02:08:59;101310.0;;;18.0
58307;BMP280;44116;50.884;4.768;2023-06-22T02:10:58;101310.0;;;17.9
58307;BMP280;44116;50.884;4.768;2023-06-22T02:12:58;101310.0;;;17.9
58307;BMP280;44116;50.884;4.768;2023-06-22T02:16:58;101310.0;;;17.7
58307;BMP280;44116;50.884;4.768;2023-06-22T02:18:58;101310.0;;;17.7
58307;BMP280;44116;50.884;4.768;2023-06-22T02:20:58;101310.0;;;17.8
58307;BMP280;44116;50.884;4.768;2023-06-22T02:22:58;101300.0;;;17.8
58307;BMP280;44116;50.884;4.768;2023-06-22T02:24:58;101300.0;;;17.8
58307;BMP280;44116;50.884;4.768;2023-06-22T02:26:58;101300.0;;;18.0
58307;BMP280;44116;50.884;4.768;2023-06-22T02:28:58;101300.0;;;18.0
58307;BMP280;44116;50.884;4.768;2023-06-22T02:30:58;101300.0;;;17.9
58307;BMP280;44116;50.884;4.768;2023-06-22T02:34:58;101290.0;;;17.8
58307;BMP280;44116;50.884;4.768;2023-06-22T02:36:58;101290.0;;;17.9
58307;BMP280;44116;50.884;4.768;2023-06-22T02:38:58;101290.0;;;18.0
58307;BMP280;44116;50.884;4.768;2023-06-22T02:40:58;101280.0;;;18.1
58307;BMP280;44116;50.884;4.768;2023-06-22T02:42:58;101280.0;;;18.0
58307;BMP280;44116;50.884;4.768;2023-06-22T02:44:58;101280.0;;;18.0
58307;BMP280;44116;50.884;4.768;2023-06-22T02:48:57;101270.0;;;17.9
58307;BMP280;44116;50.884;4.768;2023-06-22T02:50:57;101260.0;;;17.9
58307;BMP280;44116;50.884;4.768;2023-06-22T02:54:57;101260.0;;;18.0
58307;BMP280;44116;50.884;4.768;2023-06-22T02:56:57;101260.0;;;18.0
58307;BMP280;44116;50.884;4.768;2023-06-22T02:58:57;101260.0;;;18.2
58307;BMP280;44116;50.884;4.768;2023-06-22T03:00:57;101260.0;;;18.0
58307;BMP280;44116;50.884;4.768;2023-06-22T03:02:57;101260.0;;;18.0
58307;BMP280;44116;50.884;4.768;2023-06-22T03:04:57;101250.0;;;18.0
58307;BMP280;44116;50.884;4.768;2023-06-22T03:06:57;101250.0;;;18.2
58307;BMP280;44116;50.884;4.768;2023-06-22T03:12:57;101250.0;;;17.9
58307;BMP280;44116;50.884;4.768;2023-06-22T03:16:57;101260.0;;;18.0
58307;BMP280;44116;50.884;4.768;2023-06-22T03:18:57;101260.0;;;18.0
58307;BMP280;44116;50.884;4.768;2023-06-22T03:20:57;101260.0;;;18.1
58307;BMP280;44116;50.884;4.768;2023-06-22T03:22:57;101260.0;;;18.1
58307;BMP280;44116;50.884;4.768;2023-06-22T03:24:57;101260.0;;;18.2
58307;BMP280;44116;50.884;4.768;2023-06-22T03:26:57;101260.0;;;18.1
58307;BMP280;44116;50.884;4.768;2023-06-22T03:28:57;101270.0;;;18.2
58307;BMP280;44116;50.884;4.768;2023-06-22T03:30:57;101270.0;;;18.1
58307;BMP280;44116;50.884;4.768;2023-06-22T03:32:57;101270.0;;;18.2
58307;BMP280;44116;50.884;4.768;2023-06-22T03:34:57;101270.0;;;18.2
58307;BMP280;44116;50.884;4.768;2023-06-22T03:36:57;101270.0;;;18.2
58307;BMP280;44116;50.884;4.768;2023-06-22T03:38:57;101260.0;;;18.2
58307;BMP280;44116;50.884;4.768;2023-06-22T03:40:57;101260.0;;;18.1
58307;BMP280;44116;50.884;4.768;2023-06-22T03:42:57;101250.0;;;18.0
58307;BMP280;44116;50.884;4.768;2023-06-22T03:44:57;101250.0;;;18.1
58307;BMP280;44116;50.884;4.768;2023-06-22T03:46:57;101250.0;;;18.2
58307;BMP280;44116;50.884;4.768;2023-06-22T03:48:57;101250.0;;;18.2
58307;BMP280;44116;50.884;4.768;2023-06-22T03:50:58;101260.0;;;18.2
58307;BMP280;44116;50.884;4.768;2023-06-22T03:52:57;101260.0;;;18.2
58307;BMP280;44116;50.884;4.768;2023-06-22T03:54:56;101260.0;;;18.2
58307;BMP280;44116;50.884;4.768;2023-06-22T03:56:57;101260.0;;;18.2
58307;BMP280;44116;50.884;4.768;2023-06-22T03:58:56;101250.0;;;18.2
58307;BMP280;44116;50.884;4.768;2023-06-22T04:00:56;101260.0;;;18.3
58307;BMP280;44116;50.884;4.768;2023-06-22T04:02:56;101260.0;;;18.1
58307;BMP280;44116;50.884;4.768;2023-06-22T04:04:56;101260.0;;;18.2
58307;BMP280;44116;50.884;4.768;2023-06-22T04:06:56;101260.0;;;18.1
58307;BMP280;44116;50.884;4.768;2023-06-22T04:08:56;101260.0;;;18.2
58307;BMP280;44116;50.884;4.768;2023-06-22T04:10:56;101270.0;;;18.2
58307;BMP280;44116;50.884;4.768;2023-06-22T04:12:56;101270.0;;;18.4
58307;BMP280;44116;50.884;4.768;2023-06-22T04:14:56;101270.0;;;18.2
58307;BMP280;44116;50.884;4.768;2023-06-22T04:16:57;101270.0;;;18.3
58307;BMP280;44116;50.884;4.768;2023-06-22T04:18:56;101270.0;;;18.2
58307;BMP280;44116;50.884;4.768;2023-06-22T04:20:56;101260.0;;;18.2
58307;BMP280;44116;50.884;4.768;2023-06-22T04:22:56;101260.0;;;18.3
58307;BMP280;44116;50.884;4.768;2023-06-22T04:26:56;101260.0;;;18.4
58307;BMP280;44116;50.884;4.768;2023-06-22T04:30:56;101260.0;;;18.3
58307;BMP280;44116;50.884;4.768;2023-06-22T04:32:56;101250.0;;;18.2
58307;BMP280;44116;50.884;4.768;2023-06-22T04:34:56;101250.0;;;18.3
58307;BMP280;44116;50.884;4.768;2023-06-22T04:36:56;101260.0;;;18.2
58307;BMP280;44116;50.884;4.768;2023-06-22T04:38:56;101260.0;;;18.1
58307;BMP280;44116;50.884;4.768;2023-06-22T04:42:56;101250.0;;;18.2
58307;BMP280;44116;50.884;4.768;2023-06-22T04:44:56;101260.0;;;18.2
58307;BMP280;44116;50.884;4.768;2023-06-22T04:46:57;101260.0;;;18.0
58307;BMP280;44116;50.884;4.768;2023-06-22T04:48:55;101260.0;;;18.0
58307;BMP280;44116;50.884;4.768;2023-06-22T04:50:55;101250.0;;;18.2
58307;BMP280;44116;50.884;4.768;2023-06-22T04:54:55;101240.0;;;18.1
58307;BMP280;44116;50.884;4.768;2023-06-22T04:56:55;101240.0;;;18.1
58307;BMP280;44116;50.884;4.768;2023-06-22T04:58:55;101240.0;;;18.2
58307;BMP280;44116;50.884;4.768;2023-06-22T05:00:55;101240.0;;;18.1
58307;BMP280;44116;50.884;4.768;2023-06-22T05:02:55;101240.0;;;18.2
58307;BMP280;44116;50.884;4.768;2023-06-22T05:04:55;101250.0;;;18.3
58307;BMP280;44116;50.884;4.768;2023-06-22T05:06:55;101240.0;;;18.2
58307;BMP280;44116;50.884;4.768;2023-06-22T05:08:56;101240.0;;;18.4
58307;BMP280;44116;50.884;4.768;2023-06-22T05:10:55;101240.0;;;18.3
58307;BMP280;44116;50.884;4.768;2023-06-22T05:12:55;101240.0;;;18.6
58307;BMP280;44116;50.884;4.768;2023-06-22T05:14:55;101250.0;;;18.5
58307;BMP280;44116;50.884;4.768;2023-06-22T05:16:55;101260.0;;;18.6
58307;BMP280;44116;50.884;4.768;2023-06-22T05:18:55;101260.0;;;18.6
58307;BMP280;44116;50.884;4.768;2023-06-22T05:20:55;101260.0;;;18.6
58307;BMP280;44116;50.884;4.768;2023-06-22T05:22:55;101260.0;;;18.6
58307;BMP280;44116;50.884;4.768;2023-06-22T05:26:54;101270.0;;;18.7
58307;BMP280;44116;50.884;4.768;2023-06-22T05:28:55;101260.0;;;18.8
58307;BMP280;44116;50.884;4.768;2023-06-22T05:30:54;101260.0;;;18.8
58307;BMP280;44116;50.884;4.768;2023-06-22T05:32:54;101250.0;;;18.8
58307;BMP280;44116;50.884;4.768;2023-06-22T05:34:54;101260.0;;;18.8
58307;BMP280;44116;50.884;4.768;2023-06-22T05:36:55;101260.0;;;18.7
58307;BMP280;44116;50.884;4.768;2023-06-22T05:38:55;101260.0;;;18.9
58307;BMP280;44116;50.884;4.768;2023-06-22T05:42:54;101260.0;;;18.9
58307;BMP280;44116;50.884;4.768;2023-06-22T05:44:54;101270.0;;;18.9
58307;BMP280;44116;50.884;4.768;2023-06-22T05:46:54;101270.0;;;18.9
58307;BMP280;44116;50.884;4.768;2023-06-22T05:50:54;101260.0;;;19.0
58307;BMP280;44116;50.884;4.768;2023-06-22T05:52:54;101270.0;;;19.0
58307;BMP280;44116;50.884;4.768;2023-06-22T05:54:54;101260.0;;;19.0
58307;BMP280;44116;50.884;4.768;2023-06-22T05:56:54;101270.0;;;18.9
58307;BMP280;44116;50.884;4.768;2023-06-22T06:00:54;101260.0;;;19.0
58307;BMP280;44116;50.884;4.768;2023-06-22T06:02:54;101260.0;;;19.0
58307;BMP280;44116;50.884;4.768;2023-06-22T06:04:54;101260.0;;;19.1
58307;BMP280;44116;50.884;4.768;2023-06-22T06:06:54;101260.0;;;19.1
58307;BMP280;44116;50.884;4.768;2023-06-22T06:08:54;101250.0;;;19.1
58307;BMP280;44116;50.884;4.768;2023-06-22T06:10:54;101250.0;;;19.2
58307;BMP280;44116;50.884;4.768;2023-06-22T06:12:54;101250.0;;;19.1
58307;BMP280;44116;50.884;4.768;2023-06-22T06:14:53;101250.0;;;19.1
58307;BMP280;44116;50.884;4.768;2023-06-22T06:16:53;101250.0;;;19.2
58307;BMP280;44116;50.884;4.768;2023-06-22T06:18:53;101250.0;;;19.2
58307;BMP280;44116;50.884;4.768;2023-06-22T06:20:54;101240.0;;;19.2
58307;BMP280;44116;50.884;4.768;2023-06-22T06:22:53;101230.0;;;18.9
58307;BMP280;44116;50.884;4.768;2023-06-22T06:26:53;101220.0;;;19.1
58307;BMP280;44116;50.884;4.768;2023-06-22T06:28:53;101220.0;;;19.4
58307;BMP280;44116;50.884;4.768;2023-06-22T06:30:53;101220.0;;;19.3
58307;BMP280;44116;50.884;4.768;2023-06-22T06:32:53;101210.0;;;19.4
58307;BMP280;44116;50.884;4.768;2023-06-22T06:34:53;101220.0;;;19.3
58307;BMP280;44116;50.884;4.768;2023-06-22T06:36:53;101210.0;;;19.5
58307;BMP280;44116;50.884;4.768;2023-06-22T06:38:53;101200.0;;;19.4
58307;BMP280;44116;50.884;4.768;2023-06-22T06:40:54;101210.0;;;19.5
58307;BMP280;44116;50.884;4.768;2023-06-22T06:42:53;101200.0;;;19.5
58307;BMP280;44116;50.884;4.768;2023-06-22T06:44:53;101200.0;;;19.5
58307;BMP280;44116;50.884;4.768;2023-06-22T06:46:53;101200.0;;;19.7
58307;BMP280;44116;50.884;4.768;2023-06-22T06:50:53;101200.0;;;19.9
58307;BMP280;44116;50.884;4.768;2023-06-22T06:52:53;101200.0;;;19.6
58307;BMP280;44116;50.884;4.768;2023-06-22T06:54:53;101200.0;;;19.6
58307;BMP280;44116;50.884;4.768;2023-06-22T06:56:53;101200.0;;;19.9
58307;BMP280;44116;50.884;4.768;2023-06-22T06:58:53;101190.0;;;19.7
58307;BMP280;44116;50.884;4.768;2023-06-22T07:00:53;101200.0;;;19.8
58307;BMP280;44116;50.884;4.768;2023-06-22T07:02:53;101200.0;;;19.9
58307;BMP280;44116;50.884;4.768;2023-06-22T07:04:53;101200.0;;;20.1
58307;BMP280;44116;50.884;4.768;2023-06-22T07:06:53;101200.0;;;19.9
58307;BMP280;44116;50.884;4.768;2023-06-22T07:08:53;101190.0;;;19.9
58307;BMP280;44116;50.884;4.768;2023-06-22T07:10:53;101180.0;;;19.8
58307;BMP280;44116;50.884;4.768;2023-06-22T07:12:53;101180.0;;;19.9
58307;BMP280;44116;50.884;4.768;2023-06-22T07:14:53;101180.0;;;19.8
58307;BMP280;44116;50.884;4.768;2023-06-22T07:16:53;101170.0;;;19.7
58307;BMP280;44116;50.884;4.768;2023-06-22T07:18:53;101170.0;;;19.7
58307;BMP280;44116;50.884;4.768;2023-06-22T07:20:53;101170.0;;;19.6
58307;BMP280;44116;50.884;4.768;2023-06-22T07:24:52;101150.0;;;19.8
58307;BMP280;44116;50.884;4.768;2023-06-22T07:26:53;101140.0;;;19.8
58307;BMP280;44116;50.884;4.768;2023-06-22T07:28:52;101130.0;;;19.7
58307;BMP280;44116;50.884;4.768;2023-06-22T07:30:52;101130.0;;;19.8
58307;BMP280;44116;50.884;4.768;2023-06-22T07:32:52;101120.0;;;19.8
58307;BMP280;44116;50.884;4.768;2023-06-22T07:34:52;101120.0;;;19.8
58307;BMP280;44116;50.884;4.768;2023-06-22T07:36:52;101110.0;;;19.8
58307;BMP280;44116;50.884;4.768;2023-06-22T07:38:52;101120.0;;;19.9
58307;BMP280;44116;50.884;4.768;2023-06-22T07:40:52;101130.0;;;19.9
58307;BMP280;44116;50.884;4.768;2023-06-22T07:42:52;101120.0;;;19.8
58307;BMP280;44116;50.884;4.768;2023-06-22T07:44:53;101120.0;;;19.8
58307;BMP280;44116;50.884;4.768;2023-06-22T07:46:52;101120.0;;;19.9
58307;BMP280;44116;50.884;4.768;2023-06-22T07:48:52;101120.0;;;19.8
58307;BMP280;44116;50.884;4.768;2023-06-22T07:52:52;101120.0;;;19.6
58307;BMP280;44116;50.884;4.768;2023-06-22T07:54:52;101130.0;;;19.7
58307;BMP280;44116;50.884;4.768;2023-06-22T07:56:52;101130.0;;;19.8
58307;BMP280;44116;50.884;4.768;2023-06-22T07:58:52;101130.0;;;19.8
58307;BMP280;44116;50.884;4.768;2023-06-22T08:00:53;101130.0;;;19.8
58307;BMP280;44116;50.884;4.768;2023-06-22T08:06:52;101130.0;;;19.8
58307;BMP280;44116;50.884;4.768;2023-06-22T08:08:52;101140.0;;;19.8
58307;BMP280;44116;50.884;4.768;2023-06-22T08:10:52;101130.0;;;19.8
58307;BMP280;44116;50.884;4.768;2023-06-22T08:12:52;101130.0;;;19.7
58307;BMP280;44116;50.884;4.768;2023-06-22T08:14:52;101130.0;;;19.7
58307;BMP280;44116;50.884;4.768;2023-06-22T08:18:52;101120.0;;;19.7
58307;BMP280;44116;50.884;4.768;2023-06-22T08:20:51;101120.0;;;19.7
58307;BMP280;44116;50.884;4.768;2023-06-22T08:22:52;101120.0;;;19.7
58307;BMP280;44116;50.884;4.768;2023-06-22T08:24:51;101120.0;;;19.6
58307;BMP280;44116;50.884;4.768;2023-06-22T08:26:51;101110.0;;;19.6
58307;BMP280;44116;50.884;4.768;2023-06-22T08:28:51;101110.0;;;19.5
58307;BMP280;44116;50.884;4.768;2023-06-22T08:30:51;101120.0;;;19.6
58307;BMP280;44116;50.884;4.768;2023-06-22T08:32:51;101120.0;;;19.5
58307;BMP280;44116;50.884;4.768;2023-06-22T08:34:51;101120.0;;;19.5
58307;BMP280;44116;50.884;4.768;2023-06-22T08:36:51;101120.0;;;19.8
58307;BMP280;44116;50.884;4.768;2023-06-22T08:38:51;101120.0;;;19.9
58307;BMP280;44116;50.884;4.768;2023-06-22T08:40:51;101110.0;;;19.8
58307;BMP280;44116;50.884;4.768;2023-06-22T08:42:51;101120.0;;;19.5
58307;BMP280;44116;50.884;4.768;2023-06-22T08:44:51;101110.0;;;19.6
58307;BMP280;44116;50.884;4.768;2023-06-22T08:46:51;101110.0;;;19.7
58307;BMP280;44116;50.884;4.768;2023-06-22T08:48:51;101120.0;;;19.8
58307;BMP280;44116;50.884;4.768;2023-06-22T08:52:51;101110.0;;;20.2
58307;BMP280;44116;50.884;4.768;2023-06-22T08:54:51;101120.0;;;20.1
58307;BMP280;44116;50.884;4.768;2023-06-22T08:56:51;101120.0;;;20.2
58307;BMP280;44116;50.884;4.768;2023-06-22T08:58:51;101120.0;;;20.7
58307;BMP280;44116;50.884;4.768;2023-06-22T09:02:51;101120.0;;;20.3
58307;BMP280;44116;50.884;4.768;2023-06-22T09:04:51;101120.0;;;20.3
58307;BMP280;44116;50.884;4.768;2023-06-22T09:06:50;101130.0;;;20.6
58307;BMP280;44116;50.884;4.768;2023-06-22T09:08:50;101130.0;;;20.5
58307;BMP280;44116;50.884;4.768;2023-06-22T09:10:50;101130.0;;;20.6
58307;BMP280;44116;50.884;4.768;2023-06-22T09:12:50;101130.0;;;20.8
58307;BMP280;44116;50.884;4.768;2023-06-22T09:14:50;101140.0;;;20.6
58307;BMP280;44116;50.884;4.768;2023-06-22T09:16:50;101140.0;;;21.0
58307;BMP280;44116;50.884;4.768;2023-06-22T09:18:50;101140.0;;;21.2
58307;BMP280;44116;50.884;4.768;2023-06-22T09:20:50;101140.0;;;21.1
58307;BMP280;44116;50.884;4.768;2023-06-22T09:22:50;101140.0;;;21.1
58307;BMP280;44116;50.884;4.768;2023-06-22T09:24:50;101140.0;;;21.1
58307;BMP280;44116;50.884;4.768;2023-06-22T09:26:50;101150.0;;;20.4
58307;BMP280;44116;50.884;4.768;2023-06-22T09:28:50;101150.0;;;20.0
58307;BMP280;44116;50.884;4.768;2023-06-22T09:30:50;101160.0;;;19.9
58307;BMP280;44116;50.884;4.768;2023-06-22T09:32:50;101160.0;;;19.9
58307;BMP280;44116;50.884;4.768;2023-06-22T09:34:50;101170.0;;;19.8
58307;BMP280;44116;50.884;4.768;2023-06-22T09:36:50;101180.0;;;20.5
58307;BMP280;44116;50.884;4.768;2023-06-22T09:38:50;101190.0;;;20.6
58307;BMP280;44116;50.884;4.768;2023-06-22T09:40:50;101190.0;;;20.8
58307;BMP280;44116;50.884;4.768;2023-06-22T09:42:50;101200.0;;;20.4
58307;BMP280;44116;50.884;4.768;2023-06-22T09:44:50;101200.0;;;20.5
58307;BMP280;44116;50.884;4.768;2023-06-22T09:46:50;101200.0;;;20.5
58307;BMP280;44116;50.884;4.768;2023-06-22T09:48:50;101210.0;;;20.3
58307;BMP280;44116;50.884;4.768;2023-06-22T09:50:50;101210.0;;;20.5
58307;BMP280;44116;50.884;4.768;2023-06-22T09:52:50;101210.0;;;20.6
58307;BMP280;44116;50.884;4.768;2023-06-22T09:54:50;101210.0;;;20.5
58307;BMP280;44116;50.884;4.768;2023-06-22T09:56:50;101210.0;;;20.4
58307;BMP280;44116;50.884;4.768;2023-06-22T09:58:50;101210.0;;;20.1
58307;BMP280;44116;50.884;4.768;2023-06-22T10:00:50;101210.0;;;20.2
58307;BMP280;44116;50.884;4.768;2023-06-22T10:02:50;101210.0;;;19.7
58307;BMP280;44116;50.884;4.768;2023-06-22T10:04:50;101200.0;;;19.1
58307;BMP280;44116;50.884;4.768;2023-06-22T10:06:50;101190.0;;;18.8
58307;BMP280;44116;50.884;4.768;2023-06-22T10:10:50;101190.0;;;19.9
58307;BMP280;44116;50.884;4.768;2023-06-22T10:12:54;101180.0;;;19.2
58307;BMP280;44116;50.884;4.768;2023-06-22T10:14:49;101180.0;;;19.1
58307;BMP280;44116;50.884;4.768;2023-06-22T10:16:50;101170.0;;;19.0
58307;BMP280;44116;50.884;4.768;2023-06-22T10:18:49;101160.0;;;18.8
58307;BMP280;44116;50.884;4.768;2023-06-22T10:20:50;101150.0;;;18.8
58307;BMP280;44116;50.884;4.768;2023-06-22T10:22:49;101130.0;;;18.9
58307;BMP280;44116;50.884;4.768;2023-06-22T10:24:49;101130.0;;;18.9
58307;BMP280;44116;50.884;4.768;2023-06-22T10:26:49;101130.0;;;19.1
58307;BMP280;44116;50.884;4.768;2023-06-22T10:28:49;101120.0;;;19.0
58307;BMP280;44116;50.884;4.768;2023-06-22T10:30:49;101110.0;;;19.0
58307;BMP280;44116;50.884;4.768;2023-06-22T10:32:49;101110.0;;;19.0
58307;BMP280;44116;50.884;4.768;2023-06-22T10:34:49;101110.0;;;18.8
58307;BMP280;44116;50.884;4.768;2023-06-22T10:36:49;101100.0;;;18.9
58307;BMP280;44116;50.884;4.768;2023-06-22T10:38:49;101090.0;;;18.8
58307;BMP280;44116;50.884;4.768;2023-06-22T10:40:49;101090.0;;;18.8
58307;BMP280;44116;50.884;4.768;2023-06-22T10:42:49;101080.0;;;18.5
58307;BMP280;44116;50.884;4.768;2023-06-22T10:44:49;101070.0;;;18.5
58307;BMP280;44116;50.884;4.768;2023-06-22T10:46:49;101060.0;;;18.6
58307;BMP280;44116;50.884;4.768;2023-06-22T10:48:49;101050.0;;;18.4
58307;BMP280;44116;50.884;4.768;2023-06-22T10:50:49;101030.0;;;18.4
58307;BMP280;44116;50.884;4.768;2023-06-22T10:52:49;101020.0;;;18.4
58307;BMP280;44116;50.884;4.768;2023-06-22T10:54:49;101000.0;;;18.3
58307;BMP280;44116;50.884;4.768;2023-06-22T10:56:49;100990.0;;;18.3
58307;BMP280;44116;50.884;4.768;2023-06-22T10:58:49;100980.0;;;18.4
58307;BMP280;44116;50.884;4.768;2023-06-22T11:00:49;100970.0;;;18.5
58307;BMP280;44116;50.884;4.768;2023-06-22T11:02:49;100960.0;;;18.3
58307;BMP280;44116;50.884;4.768;2023-06-22T11:04:49;100960.0;;;18.4
58307;BMP280;44116;50.884;4.768;2023-06-22T11:06:49;100960.0;;;18.2
58307;BMP280;44116;50.884;4.768;2023-06-22T11:08:49;100960.0;;;18.5
58307;BMP280;44116;50.884;4.768;2023-06-22T11:10:50;100960.0;;;18.6
58307;BMP280;44116;50.884;4.768;2023-06-22T11:12:49;100960.0;;;18.5
58307;BMP280;44116;50.884;4.768;2023-06-22T11:14:48;100950.0;;;18.5
58307;BMP280;44116;50.884;4.768;2023-06-22T11:16:48;100950.0;;;18.6
58307;BMP280;44116;50.884;4.768;2023-06-22T11:18:48;100950.0;;;18.4
58307;BMP280;44116;50.884;4.768;2023-06-22T11:20:48;100950.0;;;18.5
58307;BMP280;44116;50.884;4.768;2023-06-22T11:22:48;100950.0;;;18.6
58307;BMP280;44116;50.884;4.768;2023-06-22T11:24:48;100960.0;;;18.3
58307;BMP280;44116;50.884;4.768;2023-06-22T11:26:48;100960.0;;;18.4
58307;BMP280;44116;50.884;4.768;2023-06-22T11:28:48;100960.0;;;18.4
58307;BMP280;44116;50.884;4.768;2023-06-22T11:30:48;100950.0;;;18.6
58307;BMP280;44116;50.884;4.768;2023-06-22T11:32:48;100950.0;;;18.8
58307;BMP280;44116;50.884;4.768;2023-06-22T11:34:48;100960.0;;;18.3
58307;BMP280;44116;50.884;4.768;2023-06-22T11:36:48;100950.0;;;18.2
58307;BMP280;44116;50.884;4.768;2023-06-22T11:38:48;100950.0;;;18.1
58307;BMP280;44116;50.884;4.768;2023-06-22T11:40:48;100960.0;;;18.2
58307;BMP280;44116;50.884;4.768;2023-06-22T11:42:48;100960.0;;;18.3
58307;BMP280;44116;50.884;4.768;2023-06-22T11:44:48;100960.0;;;18.3
58307;BMP280;44116;50.884;4.768;2023-06-22T11:46:48;100950.0;;;18.3
58307;BMP280;44116;50.884;4.768;2023-06-22T11:48:48;100940.0;;;18.1
58307;BMP280;44116;50.884;4.768;2023-06-22T11:52:48;100930.0;;;18.1
58307;BMP280;44116;50.884;4.768;2023-06-22T11:54:48;100920.0;;;18.1
58307;BMP280;44116;50.884;4.768;2023-06-22T11:56:47;100920.0;;;18.2
58307;BMP280;44116;50.884;4.768;2023-06-22T11:58:47;100910.0;;;18.1
58307;BMP280;44116;50.884;4.768;2023-06-22T12:00:47;100910.0;;;18.2
58307;BMP280;44116;50.884;4.768;2023-06-22T12:02:47;100910.0;;;18.0
58307;BMP280;44116;50.884;4.768;2023-06-22T12:04:47;100920.0;;;17.8
58307;BMP280;44116;50.884;4.768;2023-06-22T12:06:47;100910.0;;;17.9
58307;BMP280;44116;50.884;4.768;2023-06-22T12:08:47;100910.0;;;17.9
58307;BMP280;44116;50.884;4.768;2023-06-22T12:10:48;100910.0;;;18.0
58307;BMP280;44116;50.884;4.768;2023-06-22T12:12:47;100920.0;;;18.0
58307;BMP280;44116;50.884;4.768;2023-06-22T12:14:47;100920.0;;;18.0
58307;BMP280;44116;50.884;4.768;2023-06-22T12:16:47;100920.0;;;18.1
58307;BMP280;44116;50.884;4.768;2023-06-22T12:18:47;100920.0;;;18.1
58307;BMP280;44116;50.884;4.768;2023-06-22T12:20:47;100920.0;;;18.1
58307;BMP280;44116;50.884;4.768;2023-06-22T12:22:47;100910.0;;;18.1
58307;BMP280;44116;50.884;4.768;2023-06-22T12:24:47;100900.0;;;18.0
58307;BMP280;44116;50.884;4.768;2023-06-22T12:26:46;100900.0;;;18.0
58307;BMP280;44116;50.884;4.768;2023-06-22T12:28:47;100890.0;;;18.0
58307;BMP280;44116;50.884;4.768;2023-06-22T12:30:46;100880.0;;;18.0
58307;BMP280;44116;50.884;4.768;2023-06-22T12:32:46;100880.0;;;18.1
58307;BMP280;44116;50.884;4.768;2023-06-22T12:34:46;100880.0;;;17.9
58307;BMP280;44116;50.884;4.768;2023-06-22T12:36:46;100870.0;;;18.0
58307;BMP280;44116;50.884;4.768;2023-06-22T12:38:46;100870.0;;;18.0
58307;BMP280;44116;50.884;4.768;2023-06-22T12:40:46;100870.0;;;18.1
58307;BMP280;44116;50.884;4.768;2023-06-22T12:42:46;100870.0;;;18.1
58307;BMP280;44116;50.884;4.768;2023-06-22T12:44:46;100860.0;;;18.0
58307;BMP280;44116;50.884;4.768;2023-06-22T12:46:46;100860.0;;;18.0